首页
METAR-TAF:

METAR-TAF

机场 :

Key Lake, 薩斯喀徹溫, 加拿大

纬度: 57-15N, 经度: 105-37W, 海拔: 509米

当前天气观测

该预报发布于36分钟前的11:00 UTC
静风
温度 2°C
湿度 93%
气压 1012 hPa
能見度: 14.5公里
天空无云

METAR: CYKJ 191100Z AUTO 00000KT 9SM CLR 02/01 A2989 RMK SLP139

时间: 05:36 (11:36 UTC)

预报

该预报发布于1小时和58分钟前的09:38 UTC
预报有效从19日的 10点(UTC)到 19日的 22点(UTC)
风速3节,风向多变
能見度: 10公里
天空无云
几率 30%
从 19日的 10点(UTC)到 19日的 13点(UTC)
能見度: 1.2公里
散云层高于100英尺
轻雾
从 19日的 1800点(UTC)
风速8节,风向南转西南
能見度: 10公里
少量云层高于5000英尺

TAF: CYKJ 190938Z 1910/1922 VRB03KT P6SM SKC PROB30 1910/1913 3/4SM BR SCT001 FM191800 21008KT P6SM FEW050 RMK FCST BASED ON AUTO OBS. NXT FCST BY 191300Z

超过4000个机场的气象观测和天气预报(METAR&TAF报告)。

可查询的气象台以黄色和红色小点在地图上表示。

将鼠标移到小点上方,可查看气象台名称。

然后点击查看天气观测和预报。

如需切换地图:点击带黑十字的绿色按钮放大地图;点击带横线的绿色按钮缩小地图;或者点击绿色箭头查看邻近地区的地图。


METAR-TAF: